createdAt,value
2019-02-22T00:00:52.644Z,8.70
2019-02-22T00:01:52.689Z,13.80
2019-02-22T00:02:52.728Z,12.20
2019-02-22T00:03:52.752Z,5.70
2019-02-22T00:04:52.820Z,10.40
2019-02-22T00:05:52.845Z,11.30
2019-02-22T00:06:52.901Z,7.60
2019-02-22T00:07:52.946Z,9.90
2019-02-22T00:08:53.023Z,10.00
2019-02-22T00:09:53.049Z,11.10
2019-02-22T00:10:53.071Z,9.30
2019-02-22T00:11:53.112Z,10.10
2019-02-22T00:12:53.178Z,7.30
2019-02-22T00:13:53.258Z,10.70
2019-02-22T00:14:53.278Z,11.00
2019-02-22T00:15:53.343Z,12.60
2019-02-22T00:16:53.380Z,10.50
2019-02-22T00:17:53.413Z,11.80
2019-02-22T00:18:53.432Z,13.80
2019-02-22T00:19:53.540Z,10.20
2019-02-22T00:20:53.551Z,8.20
2019-02-22T00:21:53.615Z,8.20
2019-02-22T00:22:53.615Z,6.70
2019-02-22T00:23:53.686Z,8.80
2019-02-22T00:24:53.739Z,8.80
2019-02-22T00:25:53.766Z,9.90
2019-02-22T00:26:53.825Z,8.60
2019-02-22T00:27:53.876Z,9.40
2019-02-22T00:28:53.920Z,8.00
2019-02-22T00:29:53.967Z,7.40
2019-02-22T00:30:54.008Z,7.70
2019-02-22T00:31:54.032Z,7.70
2019-02-22T00:32:54.110Z,7.00
2019-02-22T00:33:54.124Z,6.60
2019-02-22T00:34:54.212Z,7.70
2019-02-22T00:35:54.308Z,9.00
2019-02-22T00:36:54.315Z,9.00
2019-02-22T00:37:54.311Z,8.10
2019-02-22T00:38:54.381Z,8.20
2019-02-22T00:39:54.433Z,7.80
2019-02-22T00:40:54.472Z,8.30
2019-02-22T00:41:54.510Z,7.20
2019-02-22T00:42:54.575Z,7.70
2019-02-22T00:43:54.626Z,9.70
2019-02-22T00:44:54.631Z,8.70
2019-02-22T00:45:54.699Z,10.40
2019-02-22T00:46:54.750Z,9.80
2019-02-22T00:47:54.792Z,9.90
2019-02-22T00:48:54.843Z,8.10
2019-02-22T00:49:54.892Z,9.30
2019-02-22T00:50:54.923Z,8.50
2019-02-22T00:51:55.026Z,8.70
2019-02-22T00:52:55.058Z,10.10
2019-02-22T00:53:55.071Z,10.50
2019-02-22T00:54:55.165Z,9.30
2019-02-22T00:55:55.157Z,9.80
2019-02-22T00:56:55.210Z,11.10
2019-02-22T00:57:55.260Z,9.20
2019-02-22T00:58:55.299Z,9.70
2019-02-22T00:59:55.411Z,11.30
2019-02-22T01:00:55.407Z,10.20
2019-02-22T01:01:55.473Z,10.60
2019-02-22T01:02:55.472Z,9.80
2019-02-22T01:03:55.548Z,10.40
2019-02-22T01:04:55.594Z,8.90
2019-02-22T01:05:55.647Z,8.50
2019-02-22T01:06:55.680Z,9.10
2019-02-22T01:07:55.727Z,11.40
2019-02-22T01:08:55.762Z,11.40
2019-02-22T01:09:55.854Z,12.80
2019-02-22T01:10:55.849Z,13.30
2019-02-22T01:11:55.898Z,12.70
2019-02-22T01:12:55.925Z,12.70
2019-02-22T01:13:55.999Z,13.70
2019-02-22T01:14:56.060Z,12.90
2019-02-22T01:15:56.090Z,13.30
2019-02-22T01:16:57.348Z,14.10
2019-02-22T01:17:56.204Z,17.70
2019-02-22T01:18:56.236Z,18.00
2019-02-22T01:19:56.272Z,17.00
2019-02-22T01:20:56.336Z,14.90
2019-02-22T01:21:56.351Z,14.70
2019-02-22T01:22:56.422Z,15.30
2019-02-22T01:23:56.474Z,15.70
2019-02-22T01:24:56.537Z,16.10
2019-02-22T01:25:56.570Z,17.20
2019-02-22T01:26:56.593Z,16.20
2019-02-22T01:27:56.638Z,16.60
2019-02-22T01:28:56.697Z,16.10
2019-02-22T01:29:56.752Z,15.20
2019-02-22T01:30:56.780Z,16.10
2019-02-22T01:31:56.831Z,14.00
2019-02-22T01:32:56.863Z,13.80
2019-02-22T01:33:56.910Z,16.00
2019-02-22T01:34:56.968Z,13.20
2019-02-22T01:35:57.010Z,12.90
2019-02-22T01:36:57.051Z,13.20
2019-02-22T01:37:57.117Z,13.30
2019-02-22T01:38:57.174Z,15.00
2019-02-22T01:39:57.194Z,15.70
2019-02-22T01:40:57.228Z,15.60
2019-02-22T01:41:57.293Z,16.70
2019-02-22T01:42:57.371Z,14.60
2019-02-22T01:43:57.381Z,14.90
2019-02-22T01:44:57.430Z,14.80
2019-02-22T01:45:57.456Z,17.40
2019-02-22T01:46:57.530Z,13.60
2019-02-22T01:47:57.573Z,17.00
2019-02-22T01:48:57.593Z,15.60
2019-02-22T01:49:57.661Z,14.10
2019-02-22T01:50:57.718Z,15.70
2019-02-22T01:51:57.772Z,14.40
2019-02-22T01:52:57.797Z,13.90
2019-02-22T01:53:57.848Z,14.80
2019-02-22T01:54:57.899Z,14.40
2019-02-22T01:55:57.975Z,15.70
2019-02-22T01:56:57.997Z,18.30
2019-02-22T01:57:58.034Z,16.20
2019-02-22T01:58:58.094Z,14.70
2019-02-22T01:59:58.097Z,15.00
2019-02-22T02:00:58.172Z,18.50
2019-02-22T02:01:58.225Z,21.00
2019-02-22T02:02:58.258Z,20.20
2019-02-22T02:03:58.292Z,22.70
2019-02-22T02:04:58.344Z,22.40
2019-02-22T02:05:58.380Z,22.10
2019-02-22T02:06:58.454Z,23.70
2019-02-22T02:07:58.479Z,19.70
2019-02-22T02:08:58.590Z,20.10
2019-02-22T02:09:58.573Z,18.60
2019-02-22T02:10:58.617Z,16.60
2019-02-22T02:11:58.678Z,17.10
2019-02-22T02:12:58.714Z,18.40
2019-02-22T02:13:58.780Z,15.90
2019-02-22T02:14:58.890Z,16.20
2019-02-22T02:15:58.849Z,15.10
2019-02-22T02:16:58.913Z,15.40
2019-02-22T02:17:58.951Z,13.70
2019-02-22T02:18:59.006Z,15.20
2019-02-22T02:19:59.061Z,16.00
2019-02-22T02:20:59.136Z,15.70
2019-02-22T02:21:59.133Z,15.00
2019-02-22T02:22:59.176Z,16.30
2019-02-22T02:23:59.225Z,13.20
2019-02-22T02:24:59.293Z,16.30
2019-02-22T02:25:59.313Z,18.20
2019-02-22T02:26:59.412Z,16.60
2019-02-22T02:27:59.395Z,18.70
2019-02-22T02:28:59.446Z,21.10
2019-02-22T02:29:59.515Z,20.00
2019-02-22T02:30:59.556Z,19.00
2019-02-22T02:31:59.740Z,19.40
2019-02-22T02:32:59.659Z,18.00
2019-02-22T02:33:59.736Z,18.40
2019-02-22T02:34:59.749Z,18.20
2019-02-22T02:35:59.781Z,17.70
2019-02-22T02:36:59.863Z,18.20
2019-02-22T02:37:59.883Z,19.20
2019-02-22T02:38:59.916Z,18.90
2019-02-22T02:40:00.400Z,18.40
2019-02-22T02:41:09.938Z,17.60
2019-02-22T02:42:00.069Z,22.30
2019-02-22T02:43:00.106Z,20.00
2019-02-22T02:44:00.165Z,17.70
2019-02-22T02:45:00.537Z,21.30
2019-02-22T02:46:00.264Z,17.60
2019-02-22T02:47:00.297Z,17.80
2019-02-22T02:48:00.377Z,16.60
2019-02-22T02:49:00.431Z,18.20
2019-02-22T02:50:00.439Z,17.50
2019-02-22T02:51:00.492Z,17.50
2019-02-22T02:52:00.562Z,17.40
2019-02-22T02:53:00.583Z,19.00
2019-02-22T02:54:00.623Z,19.10
2019-02-22T02:55:00.675Z,18.70
2019-02-22T02:56:00.784Z,21.10
2019-02-22T02:57:00.750Z,20.10
2019-02-22T02:58:00.807Z,16.90
2019-02-22T02:59:00.863Z,18.90
2019-02-22T03:00:00.898Z,20.80
2019-02-22T03:01:00.952Z,21.90
2019-02-22T03:02:01.007Z,20.70
2019-02-22T03:03:01.051Z,21.20
2019-02-22T03:04:01.095Z,21.00
2019-02-22T03:05:01.151Z,22.80
2019-02-22T03:06:01.179Z,27.60
2019-02-22T03:07:01.221Z,25.80
2019-02-22T03:08:01.265Z,23.30
2019-02-22T03:09:01.335Z,26.30
2019-02-22T03:10:01.375Z,25.80
2019-02-22T03:11:01.416Z,26.30
2019-02-22T03:12:01.463Z,24.40
2019-02-22T03:13:01.512Z,25.50
2019-02-22T03:14:01.566Z,26.50
2019-02-22T03:15:01.600Z,28.70
2019-02-22T03:16:01.655Z,21.70
2019-02-22T03:17:01.776Z,25.10
2019-02-22T03:18:01.718Z,23.40
2019-02-22T03:19:01.782Z,24.70
2019-02-22T03:20:01.821Z,23.70
2019-02-22T03:21:01.916Z,24.40
2019-02-22T03:22:01.909Z,25.20
2019-02-22T03:23:01.978Z,25.70
2019-02-22T03:24:02.015Z,22.10
2019-02-22T03:25:02.058Z,23.00
2019-02-22T03:26:02.103Z,25.90
2019-02-22T03:27:02.163Z,28.30
2019-02-22T03:28:02.209Z,30.30
2019-02-22T03:29:02.226Z,27.70
2019-02-22T03:30:02.294Z,29.60
2019-02-22T03:31:02.346Z,31.80
2019-02-22T03:32:02.405Z,28.70
2019-02-22T03:33:02.439Z,29.10
2019-02-22T03:34:02.509Z,33.60
2019-02-22T03:35:02.525Z,26.80
2019-02-22T03:36:02.588Z,26.00
2019-02-22T03:37:02.631Z,25.30
2019-02-22T03:38:02.669Z,30.40
2019-02-22T03:39:02.685Z,34.20
2019-02-22T03:40:02.740Z,30.50
2019-02-22T03:41:02.795Z,29.70
2019-02-22T03:42:02.850Z,31.70
2019-02-22T03:43:02.889Z,23.00
2019-02-22T03:44:02.918Z,24.30
2019-02-22T03:45:02.991Z,20.70
2019-02-22T03:46:03.083Z,20.20
2019-02-22T03:47:03.076Z,19.40
2019-02-22T03:48:03.120Z,20.40
2019-02-22T03:49:03.178Z,19.10
2019-02-22T03:50:03.223Z,24.00
2019-02-22T03:51:03.260Z,22.00
2019-02-22T03:52:03.327Z,25.60
2019-02-22T03:53:03.343Z,26.40
2019-02-22T03:54:03.417Z,30.90
2019-02-22T03:55:03.451Z,27.10
2019-02-22T03:56:03.558Z,23.00
2019-02-22T03:57:03.553Z,22.80
2019-02-22T03:58:03.587Z,22.20
2019-02-22T03:59:03.626Z,22.70
2019-02-22T04:00:03.674Z,25.30
2019-02-22T04:01:03.731Z,24.90
2019-02-22T04:02:03.774Z,20.50
2019-02-22T04:03:03.861Z,23.00
2019-02-22T04:04:03.857Z,23.00
2019-02-22T04:05:03.900Z,23.50
2019-02-22T04:06:03.970Z,29.90
2019-02-22T04:07:04.007Z,29.60
2019-02-22T04:08:04.034Z,25.20
2019-02-22T04:09:04.104Z,26.20
2019-02-22T04:10:04.160Z,25.40
2019-02-22T04:11:04.182Z,24.70
2019-02-22T04:12:04.229Z,25.10
2019-02-22T04:13:04.276Z,24.00
2019-02-22T04:14:04.329Z,26.70
2019-02-22T04:15:04.392Z,24.90
2019-02-22T04:16:04.406Z,26.20
2019-02-22T04:17:04.463Z,24.30
2019-02-22T04:18:04.515Z,26.60
2019-02-22T04:19:04.551Z,28.10
2019-02-22T04:20:04.635Z,30.40
2019-02-22T04:21:04.792Z,39.00
2019-02-22T04:22:04.691Z,40.00
2019-02-22T04:23:04.718Z,43.80
2019-02-22T04:24:04.787Z,46.60
2019-02-22T04:25:04.871Z,37.50
2019-02-22T04:26:04.878Z,40.20
2019-02-22T04:27:04.929Z,38.70
2019-02-22T04:28:04.975Z,37.10
2019-02-22T04:29:05.036Z,37.70
2019-02-22T04:30:05.086Z,43.40
2019-02-22T04:31:05.108Z,49.70
2019-02-22T04:32:05.175Z,39.90
2019-02-22T04:33:05.205Z,39.00
2019-02-22T04:34:05.259Z,40.40
2019-02-22T04:35:05.335Z,38.00
2019-02-22T04:36:05.344Z,38.60
2019-02-22T04:37:05.399Z,40.90
2019-02-22T04:38:05.432Z,41.90
2019-02-22T04:39:05.492Z,38.70
2019-02-22T04:40:05.518Z,39.60
2019-02-22T04:41:05.623Z,42.20
2019-02-22T04:42:05.620Z,39.70
2019-02-22T04:43:05.702Z,44.40
2019-02-22T04:44:05.703Z,44.90
2019-02-22T04:45:05.804Z,42.20
2019-02-22T04:46:05.851Z,44.40
2019-02-22T04:47:05.866Z,43.70
2019-02-22T04:48:05.918Z,40.50
2019-02-22T04:49:05.945Z,41.10
2019-02-22T04:50:05.997Z,43.90
2019-02-22T04:51:06.030Z,37.10
2019-02-22T04:52:06.070Z,36.00
2019-02-22T04:53:06.126Z,38.30
2019-02-22T04:54:06.176Z,40.70
2019-02-22T04:55:06.210Z,40.40
2019-02-22T04:56:06.258Z,41.50
2019-02-22T04:57:06.319Z,38.80
2019-02-22T04:58:06.353Z,42.00
2019-02-22T04:59:06.385Z,41.80
2019-02-22T05:00:06.445Z,43.90
2019-02-22T05:01:06.476Z,45.10
2019-02-22T05:02:06.521Z,45.00
2019-02-22T05:03:06.592Z,46.80
2019-02-22T05:04:06.665Z,42.50
2019-02-22T05:05:06.687Z,46.30
2019-02-22T05:06:06.712Z,48.80
2019-02-22T05:07:06.756Z,44.10
2019-02-22T05:08:06.814Z,46.40
2019-02-22T05:09:06.836Z,45.80
2019-02-22T05:10:06.897Z,50.90
2019-02-22T05:11:06.959Z,48.10
2019-02-22T05:12:10.755Z,51.90
2019-02-22T05:13:07.041Z,51.70
2019-02-22T05:14:07.084Z,59.50
2019-02-22T05:15:12.650Z,51.70
2019-02-22T05:16:07.182Z,47.80
2019-02-22T05:17:07.229Z,52.10
2019-02-22T05:18:07.283Z,52.00
2019-02-22T05:19:07.300Z,45.10
2019-02-22T05:20:07.360Z,44.00
2019-02-22T05:21:07.413Z,50.10
2019-02-22T05:22:07.458Z,45.70
2019-02-22T05:23:07.723Z,47.20
2019-02-22T05:24:07.523Z,48.00
2019-02-22T05:25:07.631Z,46.30
2019-02-22T05:26:07.633Z,43.70
2019-02-22T05:27:07.685Z,42.20
2019-02-22T05:28:07.747Z,41.30
2019-02-22T05:29:07.773Z,46.20
2019-02-22T05:30:07.885Z,42.10
2019-02-22T05:31:07.861Z,48.30
2019-02-22T05:32:07.911Z,43.60
2019-02-22T05:33:07.960Z,53.90
2019-02-22T05:34:08.022Z,45.60
2019-02-22T05:35:08.098Z,44.30
2019-02-22T05:36:08.121Z,53.90
2019-02-22T05:37:08.120Z,62.80
2019-02-22T05:38:08.171Z,56.70
2019-02-22T05:39:18.488Z,47.40
2019-02-22T05:40:08.271Z,51.60
2019-02-22T05:41:08.317Z,58.60
2019-02-22T05:42:08.377Z,43.80
2019-02-22T05:43:08.422Z,44.60
2019-02-22T05:44:08.468Z,49.00
2019-02-22T05:45:08.554Z,46.70
2019-02-22T05:46:08.556Z,49.20
2019-02-22T05:47:08.606Z,45.50
2019-02-22T05:48:08.655Z,45.80
2019-02-22T05:49:08.691Z,46.20
2019-02-22T05:50:08.735Z,47.10
2019-02-22T05:51:08.790Z,42.30
2019-02-22T05:52:08.833Z,43.50
2019-02-22T05:53:08.859Z,40.80
2019-02-22T05:54:08.956Z,40.60
2019-02-22T05:55:08.978Z,44.10
2019-02-22T05:56:09.001Z,45.40
2019-02-22T05:57:09.056Z,38.50
2019-02-22T05:58:09.098Z,36.80
2019-02-22T05:59:09.154Z,39.80
2019-02-22T06:00:09.195Z,43.90
2019-02-22T06:01:09.248Z,49.30
2019-02-22T06:02:09.311Z,39.00
2019-02-22T06:03:09.321Z,37.60
2019-02-22T06:04:09.396Z,39.60
2019-02-22T06:05:09.413Z,37.00
2019-02-22T06:06:09.463Z,42.30
2019-02-22T06:07:09.561Z,47.80
2019-02-22T06:08:09.586Z,38.00
2019-02-22T06:09:09.635Z,39.40
2019-02-22T06:10:09.661Z,40.40
2019-02-22T06:11:09.721Z,42.40
2019-02-22T06:12:09.747Z,42.30
2019-02-22T06:13:09.803Z,46.80
2019-02-22T06:14:09.829Z,48.30
2019-02-22T06:15:09.878Z,40.00
2019-02-22T06:16:09.945Z,39.90
2019-02-22T06:17:14.672Z,44.10
2019-02-22T06:18:10.074Z,32.20
2019-02-22T06:19:10.087Z,33.90
2019-02-22T06:20:10.142Z,35.50
2019-02-22T06:21:10.175Z,35.50
2019-02-22T06:22:10.206Z,36.60
2019-02-22T06:23:10.247Z,37.20
2019-02-22T06:24:10.294Z,38.90
2019-02-22T06:25:10.389Z,34.50
2019-02-22T06:26:10.405Z,38.60
2019-02-22T06:27:10.437Z,36.20
2019-02-22T06:28:10.489Z,37.80
2019-02-22T06:29:10.530Z,33.80
2019-02-22T06:30:10.574Z,29.20
2019-02-22T06:31:10.633Z,27.50
2019-02-22T06:32:10.685Z,36.20
2019-02-22T06:33:10.704Z,34.40
2019-02-22T06:34:10.738Z,33.70
2019-02-22T06:35:10.818Z,30.10
2019-02-22T06:36:10.872Z,29.10
2019-02-22T06:37:10.895Z,31.80
2019-02-22T06:38:10.986Z,31.50
2019-02-22T06:39:11.006Z,29.40
2019-02-22T06:40:11.042Z,31.50
2019-02-22T06:41:11.099Z,38.90
2019-02-22T06:42:11.285Z,34.00
2019-02-22T06:43:11.182Z,40.90
2019-02-22T06:44:11.981Z,26.30
2019-02-22T06:45:11.318Z,27.70
2019-02-22T06:46:11.321Z,32.40
2019-02-22T06:47:11.372Z,34.50
2019-02-22T06:48:11.408Z,31.90
2019-02-22T06:49:11.468Z,33.70
2019-02-22T06:50:11.499Z,32.00
2019-02-22T06:51:11.522Z,30.60
2019-02-22T06:52:11.586Z,28.40
2019-02-22T06:53:11.638Z,27.90
2019-02-22T06:54:11.688Z,30.10
2019-02-22T06:55:11.818Z,31.20
2019-02-22T06:56:11.816Z,32.10
2019-02-22T06:57:11.869Z,33.90
2019-02-22T06:58:11.918Z,32.20
2019-02-22T06:59:11.923Z,41.90
2019-02-22T07:00:11.955Z,35.90
2019-02-22T07:01:12.015Z,30.80
2019-02-22T07:02:12.050Z,32.60
2019-02-22T07:03:12.100Z,33.90
2019-02-22T07:04:12.123Z,34.00
2019-02-22T07:05:12.218Z,26.40
2019-02-22T07:06:12.203Z,23.60
2019-02-22T07:07:12.273Z,26.90
2019-02-22T07:08:12.346Z,21.60
2019-02-22T07:09:12.374Z,22.10
2019-02-22T07:10:12.391Z,19.40
2019-02-22T07:11:12.464Z,21.80
2019-02-22T07:12:12.538Z,20.00
2019-02-22T07:13:12.554Z,21.00
2019-02-22T07:14:12.598Z,25.00
2019-02-22T07:15:12.639Z,24.90
2019-02-22T07:16:12.688Z,24.50
2019-02-22T07:17:12.728Z,21.60
2019-02-22T07:18:12.792Z,22.90
2019-02-22T07:19:12.846Z,28.20
2019-02-22T07:20:12.901Z,29.00
2019-02-22T07:21:13.047Z,21.90
2019-02-22T07:22:12.977Z,20.90
2019-02-22T07:23:13.027Z,22.20
2019-02-22T07:24:13.066Z,28.60
2019-02-22T07:25:13.145Z,31.20
2019-02-22T07:26:13.218Z,20.90
2019-02-22T07:27:13.204Z,23.10
2019-02-22T07:28:13.245Z,26.40
2019-02-22T07:29:13.263Z,24.40
2019-02-22T07:30:13.310Z,23.00
2019-02-22T07:31:13.456Z,24.00
2019-02-22T07:32:13.414Z,24.50
2019-02-22T07:33:13.580Z,24.60
2019-02-22T07:34:13.530Z,25.00
2019-02-22T07:35:14.436Z,25.30
2019-02-22T07:36:13.649Z,22.70
2019-02-22T07:37:13.654Z,21.80
2019-02-22T07:38:13.723Z,24.60
2019-02-22T07:39:13.790Z,26.60
2019-02-22T07:40:13.797Z,27.10
2019-02-22T07:41:13.885Z,28.00
2019-02-22T07:42:13.924Z,21.00
2019-02-22T07:43:13.936Z,22.10
2019-02-22T07:44:13.987Z,21.70
2019-02-22T07:45:14.029Z,23.90
2019-02-22T07:46:14.067Z,23.00
2019-02-22T07:47:14.101Z,24.50
2019-02-22T07:48:14.176Z,23.60
2019-02-22T07:49:14.198Z,22.20
2019-02-22T07:50:14.246Z,21.30
2019-02-22T07:51:14.299Z,23.30
2019-02-22T07:52:14.345Z,22.70
2019-02-22T07:53:14.394Z,20.90
2019-02-22T07:54:14.441Z,21.40
2019-02-22T07:55:14.502Z,21.20
2019-02-22T07:56:14.577Z,21.70
2019-02-22T07:57:14.617Z,22.40
2019-02-22T07:58:14.682Z,24.60
2019-02-22T07:59:14.666Z,26.00
2019-02-22T08:00:14.738Z,26.20
2019-02-22T08:01:14.779Z,25.10
2019-02-22T08:02:14.825Z,24.80
2019-02-22T08:03:14.837Z,24.20
2019-02-22T08:04:14.917Z,22.40
2019-02-22T08:05:14.997Z,21.20
2019-02-22T08:06:15.001Z,22.40
2019-02-22T08:07:15.047Z,21.70
2019-02-22T08:08:15.080Z,22.10
2019-02-22T08:09:15.185Z,21.10
2019-02-22T08:10:15.242Z,21.30
2019-02-22T08:11:15.250Z,21.40
2019-02-22T08:12:15.259Z,23.70
2019-02-22T08:13:19.769Z,26.90
2019-02-22T08:14:15.371Z,26.40
2019-02-22T08:15:15.456Z,24.70
2019-02-22T08:16:15.467Z,27.30
2019-02-22T08:17:15.512Z,24.60
2019-02-22T08:18:15.561Z,25.80
2019-02-22T08:19:15.610Z,25.10
2019-02-22T08:20:15.639Z,28.00
2019-02-22T08:21:15.701Z,25.50
2019-02-22T08:22:15.755Z,25.70
2019-02-22T08:23:15.798Z,26.20
2019-02-22T08:24:15.867Z,26.90
2019-02-22T08:25:15.919Z,26.70
2019-02-22T08:26:15.990Z,26.90
2019-02-22T08:27:15.986Z,27.30
2019-02-22T08:28:16.053Z,28.30
2019-02-22T08:29:16.072Z,27.00
2019-02-22T08:30:16.124Z,26.40
2019-02-22T08:31:16.204Z,24.80
2019-02-22T08:32:16.206Z,26.80
2019-02-22T08:33:16.304Z,27.30
2019-02-22T08:34:16.317Z,26.30
2019-02-22T08:35:16.396Z,28.20
2019-02-22T08:36:16.412Z,30.00
2019-02-22T08:37:16.434Z,29.50
2019-02-22T08:38:16.491Z,28.10
2019-02-22T08:39:16.538Z,30.60
2019-02-22T08:40:16.555Z,28.70
2019-02-22T08:41:16.622Z,30.10
2019-02-22T08:42:16.659Z,32.40
2019-02-22T08:43:16.710Z,32.40
2019-02-22T08:44:16.741Z,32.40
2019-02-22T08:45:16.810Z,37.00
2019-02-22T08:46:16.832Z,37.40
2019-02-22T08:47:16.905Z,35.20
2019-02-22T08:48:16.958Z,39.10
2019-02-22T08:49:16.989Z,39.00
2019-02-22T08:50:17.038Z,37.40
2019-02-22T08:51:17.073Z,36.40
2019-02-22T08:52:17.116Z,37.10
2019-02-22T08:53:17.146Z,36.70
2019-02-22T08:54:17.206Z,39.40
2019-02-22T08:55:17.262Z,41.20
2019-02-22T08:56:17.302Z,40.90
2019-02-22T08:57:17.400Z,38.50
2019-02-22T08:58:17.415Z,39.90
2019-02-22T08:59:17.449Z,41.00
2019-02-22T09:00:17.476Z,40.30
2019-02-22T09:01:17.547Z,40.60
2019-02-22T09:02:17.583Z,40.40
2019-02-22T09:03:17.641Z,39.00
2019-02-22T09:04:17.676Z,39.70
2019-02-22T09:05:17.722Z,37.90
2019-02-22T09:06:17.766Z,39.20
2019-02-22T09:07:17.817Z,39.20
2019-02-22T09:08:17.840Z,39.60
2019-02-22T09:09:17.905Z,39.20
2019-02-22T09:10:17.965Z,38.60
2019-02-22T09:11:18.009Z,39.90
2019-02-22T09:12:18.123Z,39.70
2019-02-22T09:13:18.104Z,44.30
2019-02-22T09:14:18.117Z,39.20
2019-02-22T09:15:18.160Z,40.00
2019-02-22T09:16:18.239Z,37.80
2019-02-22T09:17:18.301Z,41.10
2019-02-22T09:18:18.405Z,39.40
2019-02-22T09:19:18.369Z,42.30
2019-02-22T09:20:18.417Z,44.20
2019-02-22T09:21:18.501Z,46.70
2019-02-22T09:22:22.804Z,51.20
2019-02-22T09:23:18.579Z,45.70
2019-02-22T09:24:18.582Z,42.60
2019-02-22T09:25:18.639Z,42.20
2019-02-22T09:26:18.690Z,43.40
2019-02-22T09:27:18.718Z,40.00
2019-02-22T09:28:18.796Z,38.80
2019-02-22T09:29:18.806Z,42.40
2019-02-22T09:30:18.901Z,40.10
2019-02-22T09:31:18.922Z,41.50
2019-02-22T09:32:18.982Z,35.80
2019-02-22T09:33:19.028Z,39.60
2019-02-22T09:34:19.060Z,35.90
2019-02-22T09:35:19.097Z,32.90
2019-02-22T09:36:19.153Z,31.20
2019-02-22T09:37:19.199Z,31.90
2019-02-22T09:38:19.241Z,28.90
2019-02-22T09:39:19.281Z,30.90
2019-02-22T09:40:19.319Z,31.50
2019-02-22T09:41:19.407Z,33.40
2019-02-22T09:42:19.438Z,31.70
2019-02-22T09:43:19.474Z,32.50
2019-02-22T09:44:19.522Z,31.80
2019-02-22T09:45:19.569Z,31.50
2019-02-22T09:46:19.612Z,32.00
2019-02-22T09:47:19.664Z,33.40
2019-02-22T09:48:19.701Z,33.80
2019-02-22T09:49:19.757Z,34.10
2019-02-22T09:50:19.791Z,36.60
2019-02-22T09:51:19.837Z,32.20
2019-02-22T09:52:19.874Z,31.70
2019-02-22T09:53:19.926Z,33.30
2019-02-22T09:54:19.957Z,35.10
2019-02-22T09:55:20.025Z,31.00
2019-02-22T09:56:20.069Z,31.10
2019-02-22T09:57:20.123Z,30.20
2019-02-22T09:58:20.156Z,31.10
2019-02-22T09:59:20.242Z,29.40
2019-02-22T10:00:20.269Z,27.80
2019-02-22T10:01:20.344Z,28.80
2019-02-22T10:02:20.357Z,32.20
2019-02-22T10:03:20.397Z,30.70
2019-02-22T10:04:20.493Z,29.80
2019-02-22T10:05:20.529Z,29.80
2019-02-22T10:06:20.586Z,29.00
2019-02-22T10:07:20.583Z,30.60
2019-02-22T10:08:20.630Z,28.40
2019-02-22T10:09:20.666Z,29.90
2019-02-22T10:10:20.773Z,30.40
2019-02-22T10:11:20.810Z,25.10
2019-02-22T10:12:20.796Z,24.70
2019-02-22T10:13:20.873Z,23.80
2019-02-22T10:14:20.922Z,24.30
2019-02-22T10:15:20.957Z,24.10
2019-02-22T10:16:21.008Z,23.50
2019-02-22T10:17:21.039Z,22.30
2019-02-22T10:18:21.084Z,23.30
2019-02-22T10:19:21.121Z,22.80
2019-02-22T10:20:21.188Z,22.20
2019-02-22T10:21:21.224Z,22.40
2019-02-22T10:22:21.274Z,21.10
2019-02-22T10:23:21.305Z,21.30
2019-02-22T10:24:21.384Z,21.40
2019-02-22T10:25:21.431Z,22.20
2019-02-22T10:26:21.627Z,22.30
2019-02-22T10:27:21.534Z,22.00
2019-02-22T10:28:21.560Z,21.90
2019-02-22T10:29:21.612Z,22.00
2019-02-22T10:30:21.659Z,21.90
2019-02-22T10:31:21.718Z,20.90
2019-02-22T10:32:21.765Z,20.10
2019-02-22T10:33:22.016Z,19.00
2019-02-22T10:34:21.902Z,17.50
2019-02-22T10:35:21.916Z,18.60
2019-02-22T10:36:21.954Z,18.00
2019-02-22T10:37:21.997Z,17.00
2019-02-22T10:38:22.071Z,16.90
2019-02-22T10:39:22.098Z,17.40
2019-02-22T10:40:22.192Z,16.50
2019-02-22T10:41:22.216Z,16.10
2019-02-22T10:42:22.267Z,15.90
2019-02-22T10:43:22.315Z,15.20
2019-02-22T10:44:22.355Z,14.50
2019-02-22T10:45:22.430Z,14.20
2019-02-22T10:46:22.642Z,14.30
2019-02-22T10:47:22.528Z,14.00
2019-02-22T10:48:22.579Z,14.40
2019-02-22T10:49:22.612Z,14.50
2019-02-22T10:50:22.675Z,13.30
2019-02-22T10:51:22.727Z,13.10
2019-02-22T10:52:22.785Z,12.20
2019-02-22T10:53:22.837Z,12.10
2019-02-22T10:54:22.893Z,11.80
2019-02-22T10:55:22.958Z,10.70
2019-02-22T10:56:22.992Z,10.20
2019-02-22T10:57:23.052Z,11.60
2019-02-22T10:58:23.090Z,11.80
2019-02-22T10:59:23.142Z,11.00
2019-02-22T11:00:23.203Z,10.80
2019-02-22T11:01:23.249Z,10.40
2019-02-22T11:02:23.319Z,11.50
2019-02-22T11:03:23.373Z,10.30
2019-02-22T11:04:23.415Z,10.00
2019-02-22T11:05:23.488Z,10.10
2019-02-22T11:06:23.525Z,10.50
2019-02-22T11:07:23.646Z,10.60
2019-02-22T11:08:23.652Z,10.60
2019-02-22T11:09:23.681Z,10.90
2019-02-22T11:10:23.771Z,10.50
2019-02-22T11:11:23.830Z,10.30
2019-02-22T11:12:23.851Z,10.20
2019-02-22T11:13:23.905Z,10.40
2019-02-22T11:14:29.236Z,10.80
2019-02-22T11:15:24.013Z,10.10
2019-02-22T11:16:24.088Z,9.60
2019-02-22T11:17:24.161Z,9.50
2019-02-22T11:18:24.189Z,10.10
2019-02-22T11:19:24.260Z,10.30
2019-02-22T11:20:24.304Z,10.50
2019-02-22T11:21:24.361Z,10.40
2019-02-22T11:22:24.413Z,10.00
2019-02-22T11:23:24.455Z,9.50
2019-02-22T11:24:24.498Z,9.90
2019-02-22T11:25:24.569Z,10.00
2019-02-22T11:26:24.655Z,9.90
2019-02-22T11:27:24.669Z,9.70
2019-02-22T11:28:24.735Z,10.40
2019-02-22T11:29:24.787Z,10.10
2019-02-22T11:30:24.833Z,10.20
2019-02-22T11:31:24.905Z,11.00
2019-02-22T11:32:24.957Z,10.60
2019-02-22T11:33:25.005Z,10.20
2019-02-22T11:34:25.069Z,9.80
2019-02-22T11:35:25.136Z,9.80
2019-02-22T11:36:25.173Z,9.80
2019-02-22T11:37:25.239Z,9.20
2019-02-22T11:38:25.285Z,9.60
2019-02-22T11:39:25.360Z,8.70
2019-02-22T11:40:25.395Z,8.30
2019-02-22T11:41:25.503Z,7.80
2019-02-22T11:42:25.573Z,7.00
2019-02-22T11:43:25.568Z,7.10
2019-02-22T11:44:25.649Z,6.90
2019-02-22T11:45:25.674Z,7.00
2019-02-22T11:46:25.760Z,6.90
2019-02-22T11:47:25.809Z,6.70
2019-02-22T11:48:25.864Z,6.40
2019-02-22T11:49:25.922Z,6.50
2019-02-22T11:50:25.964Z,6.70
2019-02-22T11:51:26.037Z,5.70
2019-02-22T11:52:26.102Z,6.10
2019-02-22T11:53:26.121Z,6.00
2019-02-22T11:54:26.181Z,5.70
2019-02-22T11:55:26.254Z,5.60
2019-02-22T11:56:26.364Z,5.80
2019-02-22T11:57:26.395Z,6.00
2019-02-22T11:58:26.426Z,5.50
2019-02-22T11:59:26.508Z,5.10
2019-02-22T12:00:26.528Z,6.10
2019-02-22T12:01:26.598Z,6.10
2019-02-22T12:02:26.677Z,5.40
2019-02-22T12:03:26.689Z,5.10
2019-02-22T12:04:26.783Z,5.30
2019-02-22T12:05:26.833Z,5.00
2019-02-22T12:06:26.893Z,5.30
2019-02-22T12:07:26.940Z,5.00
2019-02-22T12:08:26.995Z,4.90
2019-02-22T12:09:27.073Z,5.00
2019-02-22T12:10:27.103Z,5.00
2019-02-22T12:11:27.173Z,4.90
2019-02-22T12:12:27.243Z,5.00
2019-02-22T12:13:27.277Z,4.30
2019-02-22T12:14:27.303Z,4.30
2019-02-22T12:15:27.418Z,4.10
2019-02-22T12:16:27.442Z,4.40
2019-02-22T12:17:27.487Z,4.30
2019-02-22T12:18:27.532Z,4.10
2019-02-22T12:19:27.603Z,4.00
2019-02-22T12:20:27.706Z,3.60
2019-02-22T12:21:27.721Z,4.00
2019-02-22T12:22:27.758Z,3.90
2019-02-22T12:23:27.853Z,3.70
2019-02-22T12:24:27.854Z,4.20
2019-02-22T12:25:27.974Z,4.40
2019-02-22T12:26:27.997Z,3.70
2019-02-22T12:27:28.047Z,3.80
2019-02-22T12:28:28.101Z,4.20
2019-02-22T12:29:28.159Z,3.70
2019-02-22T12:30:28.247Z,3.60
2019-02-22T12:31:28.269Z,4.00
2019-02-22T12:32:28.324Z,4.00
2019-02-22T12:33:28.378Z,4.10
2019-02-22T12:34:28.421Z,4.00
2019-02-22T12:35:28.460Z,3.60
2019-02-22T12:36:28.534Z,4.50
2019-02-22T12:37:28.594Z,3.40
2019-02-22T12:38:28.664Z,3.70
2019-02-22T12:39:28.708Z,4.50
2019-02-22T12:40:28.755Z,3.50
2019-02-22T12:41:28.852Z,3.40
2019-02-22T12:42:28.855Z,3.50
2019-02-22T12:43:28.908Z,3.80
2019-02-22T12:44:28.984Z,2.80
2019-02-22T12:45:29.041Z,3.60
2019-02-22T12:46:29.089Z,3.00
2019-02-22T12:47:29.131Z,3.00
2019-02-22T12:48:29.188Z,3.20
2019-02-22T12:49:29.235Z,3.10
2019-02-22T12:50:29.332Z,2.70
2019-02-22T12:51:29.357Z,3.10
2019-02-22T12:52:29.400Z,2.90
2019-02-22T12:53:29.495Z,3.50
2019-02-22T12:54:29.537Z,2.90
2019-02-22T12:55:29.606Z,3.30
2019-02-22T12:56:55.883Z,3.40
2019-02-22T12:57:29.747Z,3.50
2019-02-22T12:58:29.749Z,3.40